Surface observations / Europe / LIPB

Quebec | Canada | USA | France | UK | Europe | Elsewhere

Display: Info & Location for LIPB | Help decoding METAR

LIPB BOLZANO(CIV/IT-AFB) -- IY
Raw surface observations for station LIPB
LIPB 230850Z VRB02KT 9999 FEW080 18/09 Q1018=
LIPB 230750Z VRB01KT CAVOK 17/10 Q1018=
LIPB 230650Z VRB01KT CAVOK 13/10 Q1018=
LIPB 230450Z VRB02KT 9999 FEW060 08/08 Q1018=
LIPB 230350Z VRB01KT 9999 FEW060 09/08 Q1018=
LIPB 222050Z VRB01KT CAVOK 13/10 Q1015=
LIPB 221950Z VRB01KT CAVOK 14/10 Q1015=
LIPB 221850Z 16004KT CAVOK 17/09 Q1013=
LIPB 221750Z 16003KT 9999 SCT100 19/10 Q1012=
LIPB 221650Z 20005KT 9999 FEW045 SCT100 21/10 Q1011=
LIPB 221550Z 20004KT 9999 FEW045 23/09 Q1011=
LIPB 221450Z 23003KT 9999 SCT045 23/09 Q1011=
LIPB 221350Z 20003KT 9999 SCT045 21/08 Q1011=
LIPB 221250Z 13004KT 9999 SCT050 23/09 Q1012=
LIPB 221150Z VRB02KT 9999 FEW045 21/09 Q1012=
LIPB 221050Z VRB02KT 9999 FEW045 20/09 Q1013=
LIPB 220950Z 12004KT 080V170 9999 FEW040 18/09 Q1013=
LIPB 220850Z VRB03KT 9999 FEW025 SCT050 15/10 Q1013 RMK MON CLD SCT=